UAL1357 KIAD-KRDU
Flight info
| Callsign | UAL1357 |
|---|---|
| Flight time | 0h 42m |
| Altitude | 30000 |
| Route | JDUBB4 MELTN ALDAN4 |
| Aircraft | A319/M-SDE3FGHIRWY/LB1 |
Departure
| Time | 2026-05-06 23:09 |
|---|---|
| Airport | Washington Dulles International Airport (KIAD) |
Arrival
| Time | 2026-05-06 23:51 |
|---|---|
| Airport | Raleigh-Durham International Airport (KRDU) |
| Time | Latitude | Longitude | Altitude | Speed | Heading |
|---|---|---|---|---|---|
| 2026-05-06 22:48 | 38.94572 | -77.44788 | 302 ft | 0 kts | 163° |
| 2026-05-06 22:57 | 38.94573 | -77.44788 | 300 ft | 0 kts | 163° |
| 2026-05-06 23:00 | 38.94586 | -77.44793 | 304 ft | 4 kts | 160° |
| 2026-05-06 23:00 | 38.94611 | -77.44803 | 301 ft | 4 kts | 168° |
| 2026-05-06 23:00 | 38.94637 | -77.44806 | 302 ft | 4 kts | 198° |
| 2026-05-06 23:01 | 38.94656 | -77.44789 | 300 ft | 4 kts | 254° |
| 2026-05-06 23:01 | 38.94658 | -77.44777 | 303 ft | 0 kts | 270° |
| 2026-05-06 23:03 | 38.94658 | -77.44788 | 300 ft | 4 kts | 270° |
| 2026-05-06 23:04 | 38.94658 | -77.44851 | 300 ft | 11 kts | 271° |
| 2026-05-06 23:04 | 38.94660 | -77.44978 | 300 ft | 18 kts | 271° |
| 2026-05-06 23:04 | 38.94661 | -77.45147 | 300 ft | 20 kts | 270° |
| 2026-05-06 23:04 | 38.94663 | -77.45339 | 302 ft | 23 kts | 271° |
| 2026-05-06 23:05 | 38.94665 | -77.45497 | 300 ft | 12 kts | 270° |
| 2026-05-06 23:05 | 38.94643 | -77.45601 | 301 ft | 13 kts | 219° |
| 2026-05-06 23:05 | 38.94550 | -77.45610 | 300 ft | 15 kts | 179° |
| 2026-05-06 23:05 | 38.94433 | -77.45613 | 301 ft | 19 kts | 179° |
| 2026-05-06 23:06 | 38.94289 | -77.45614 | 302 ft | 23 kts | 180° |
| 2026-05-06 23:06 | 38.94113 | -77.45616 | 302 ft | 27 kts | 180° |
| 2026-05-06 23:06 | 38.93919 | -77.45618 | 300 ft | 29 kts | 180° |
| 2026-05-06 23:06 | 38.93746 | -77.45622 | 300 ft | 13 kts | 181° |
| 2026-05-06 23:07 | 38.93671 | -77.45565 | 304 ft | 14 kts | 131° |
| 2026-05-06 23:07 | 38.93613 | -77.45498 | 300 ft | 10 kts | 163° |
| 2026-05-06 23:07 | 38.93542 | -77.45520 | 302 ft | 12 kts | 202° |
| 2026-05-06 23:07 | 38.93472 | -77.45554 | 302 ft | 11 kts | 200° |
| 2026-05-06 23:08 | 38.93458 | -77.45560 | 299 ft | 0 kts | 199° |
| 2026-05-06 23:08 | 38.93445 | -77.45566 | 301 ft | 4 kts | 199° |
| 2026-05-06 23:08 | 38.93398 | -77.45589 | 298 ft | 10 kts | 202° |
| 2026-05-06 23:08 | 38.93382 | -77.45670 | 300 ft | 14 kts | 294° |
| 2026-05-06 23:09 | 38.93474 | -77.45980 | 298 ft | 69 kts | 290° |
| 2026-05-06 23:09 | 38.93717 | -77.46807 | 303 ft | 127 kts | 291° |
| 2026-05-06 23:09 | 38.94085 | -77.48059 | 408 ft | 163 kts | 290° |
| 2026-05-06 23:09 | 38.94354 | -77.49397 | 1136 ft | 146 kts | 266° |
| 2026-05-06 23:10 | 38.93926 | -77.50552 | 1698 ft | 153 kts | 221° |
| 2026-05-06 23:10 | 38.92884 | -77.51017 | 2090 ft | 174 kts | 188° |
| 2026-05-06 23:10 | 38.91588 | -77.50982 | 2370 ft | 199 kts | 180° |
| 2026-05-06 23:10 | 38.90114 | -77.50842 | 2701 ft | 225 kts | 180° |
| 2026-05-06 23:11 | 38.88465 | -77.50749 | 3179 ft | 246 kts | 186° |
| 2026-05-06 23:11 | 38.86720 | -77.50894 | 3970 ft | 256 kts | 189° |
| 2026-05-06 23:11 | 38.84923 | -77.51117 | 4845 ft | 263 kts | 191° |
| 2026-05-06 23:11 | 38.83089 | -77.51364 | 5787 ft | 267 kts | 192° |
| 2026-05-06 23:12 | 38.81234 | -77.51611 | 6740 ft | 269 kts | 192° |
| 2026-05-06 23:12 | 38.79362 | -77.51854 | 7652 ft | 272 kts | 192° |
| 2026-05-06 23:12 | 38.77469 | -77.52093 | 8590 ft | 274 kts | 192° |
| 2026-05-06 23:12 | 38.75561 | -77.52329 | 9499 ft | 277 kts | 192° |
| 2026-05-06 23:13 | 38.73616 | -77.52565 | 10251 ft | 286 kts | 192° |
| 2026-05-06 23:13 | 38.71550 | -77.52824 | 10528 ft | 309 kts | 192° |
| 2026-05-06 23:13 | 38.69365 | -77.53097 | 11070 ft | 320 kts | 192° |
| 2026-05-06 23:13 | 38.67125 | -77.53367 | 11763 ft | 325 kts | 192° |
| 2026-05-06 23:14 | 38.64853 | -77.53637 | 12506 ft | 330 kts | 192° |
| 2026-05-06 23:14 | 38.62557 | -77.53907 | 13228 ft | 334 kts | 192° |
| 2026-05-06 23:14 | 38.60219 | -77.54184 | 13923 ft | 339 kts | 192° |
| 2026-05-06 23:14 | 38.57858 | -77.54466 | 14558 ft | 343 kts | 193° |
| 2026-05-06 23:15 | 38.55469 | -77.54754 | 15195 ft | 347 kts | 193° |
| 2026-05-06 23:15 | 38.53059 | -77.55044 | 15829 ft | 351 kts | 194° |
| 2026-05-06 23:15 | 38.50619 | -77.55335 | 16449 ft | 354 kts | 194° |
| 2026-05-06 23:15 | 38.48148 | -77.55628 | 17083 ft | 358 kts | 194° |
| 2026-05-06 23:16 | 38.45654 | -77.55928 | 17685 ft | 362 kts | 195° |
| 2026-05-06 23:16 | 38.43140 | -77.56237 | 18294 ft | 365 kts | 196° |
| 2026-05-06 23:16 | 38.40672 | -77.56827 | 18838 ft | 356 kts | 206° |
| 2026-05-06 23:16 | 38.38392 | -77.57954 | 19403 ft | 348 kts | 216° |
| 2026-05-06 23:17 | 38.36345 | -77.59531 | 19991 ft | 343 kts | 223° |
| 2026-05-06 23:17 | 38.34365 | -77.61231 | 20588 ft | 344 kts | 223° |
| 2026-05-06 23:17 | 38.32381 | -77.62937 | 20809 ft | 344 kts | 223° |
| 2026-05-06 23:17 | 38.30401 | -77.64635 | 20872 ft | 343 kts | 223° |
| 2026-05-06 23:18 | 38.28419 | -77.66333 | 20875 ft | 343 kts | 223° |
| 2026-05-06 23:18 | 38.26443 | -77.68031 | 20874 ft | 343 kts | 223° |
| 2026-05-06 23:18 | 38.24497 | -77.69704 | 20874 ft | 342 kts | 223° |
| 2026-05-06 23:18 | 38.22518 | -77.71412 | 20983 ft | 346 kts | 223° |
| 2026-05-06 23:19 | 38.20518 | -77.73140 | 21495 ft | 349 kts | 223° |
| 2026-05-06 23:19 | 38.18503 | -77.74877 | 22047 ft | 351 kts | 223° |
| 2026-05-06 23:19 | 38.16480 | -77.76617 | 22599 ft | 353 kts | 223° |
| 2026-05-06 23:19 | 38.14435 | -77.78371 | 23145 ft | 355 kts | 223° |
| 2026-05-06 23:20 | 38.12384 | -77.80129 | 23648 ft | 357 kts | 223° |
| 2026-05-06 23:20 | 38.10315 | -77.81900 | 24094 ft | 359 kts | 223° |
| 2026-05-06 23:20 | 38.08240 | -77.83679 | 24543 ft | 361 kts | 223° |
| 2026-05-06 23:20 | 38.06153 | -77.85465 | 24992 ft | 363 kts | 223° |
| 2026-05-06 23:21 | 38.04059 | -77.87254 | 25431 ft | 364 kts | 223° |
| 2026-05-06 23:21 | 38.01954 | -77.89051 | 25835 ft | 366 kts | 223° |
| 2026-05-06 23:21 | 37.99832 | -77.90864 | 26231 ft | 368 kts | 223° |
| 2026-05-06 23:21 | 37.97702 | -77.92681 | 26648 ft | 370 kts | 223° |
| 2026-05-06 23:22 | 37.95559 | -77.94508 | 27066 ft | 372 kts | 223° |
| 2026-05-06 23:22 | 37.93405 | -77.96342 | 27501 ft | 374 kts | 223° |
| 2026-05-06 23:22 | 37.91246 | -77.98180 | 27946 ft | 375 kts | 223° |
| 2026-05-06 23:22 | 37.89080 | -78.00024 | 28389 ft | 376 kts | 223° |
| 2026-05-06 23:23 | 37.86906 | -78.01876 | 28800 ft | 378 kts | 222° |
| 2026-05-06 23:23 | 37.84723 | -78.03736 | 29214 ft | 379 kts | 222° |
| 2026-05-06 23:23 | 37.82525 | -78.05605 | 29605 ft | 381 kts | 222° |
| 2026-05-06 23:23 | 37.80316 | -78.07478 | 29864 ft | 383 kts | 222° |
| 2026-05-06 23:24 | 37.78134 | -78.09315 | 29895 ft | 370 kts | 222° |
| 2026-05-06 23:24 | 37.73768 | -78.13018 | 29895 ft | 387 kts | 222° |
| 2026-05-06 23:25 | 37.69192 | -78.16907 | 29893 ft | 404 kts | 221° |
| 2026-05-06 23:25 | 37.64489 | -78.20867 | 29897 ft | 407 kts | 221° |
| 2026-05-06 23:26 | 37.59767 | -78.24827 | 29862 ft | 408 kts | 221° |
| 2026-05-06 23:26 | 37.55011 | -78.28825 | 29903 ft | 412 kts | 221° |
| 2026-05-06 23:27 | 37.50248 | -78.32839 | 29910 ft | 412 kts | 221° |
| 2026-05-06 23:27 | 37.45482 | -78.36839 | 29903 ft | 412 kts | 221° |
| 2026-05-06 23:28 | 37.40711 | -78.40829 | 29908 ft | 412 kts | 221° |
| 2026-05-06 23:28 | 37.35935 | -78.44821 | 29871 ft | 412 kts | 221° |
| 2026-05-06 23:29 | 37.31161 | -78.48818 | 29883 ft | 413 kts | 221° |
| 2026-05-06 23:29 | 37.28757 | -78.50827 | 29669 ft | 418 kts | 221° |
| 2026-05-06 23:29 | 37.26312 | -78.52871 | 29391 ft | 425 kts | 221° |
| 2026-05-06 23:29 | 37.23847 | -78.54920 | 29124 ft | 426 kts | 220° |
| 2026-05-06 23:30 | 37.21371 | -78.56971 | 28856 ft | 425 kts | 220° |
| 2026-05-06 23:30 | 37.18908 | -78.59014 | 28378 ft | 423 kts | 221° |
| 2026-05-06 23:30 | 37.16497 | -78.61018 | 27838 ft | 421 kts | 221° |
| 2026-05-06 23:30 | 37.14058 | -78.63049 | 27399 ft | 422 kts | 220° |
| 2026-05-06 23:31 | 37.11615 | -78.65081 | 26915 ft | 421 kts | 220° |
| 2026-05-06 23:31 | 37.09172 | -78.67106 | 26427 ft | 420 kts | 220° |
| 2026-05-06 23:31 | 37.06742 | -78.69117 | 25976 ft | 418 kts | 220° |
| 2026-05-06 23:31 | 37.04328 | -78.71114 | 25475 ft | 414 kts | 220° |
| 2026-05-06 23:32 | 37.01924 | -78.73101 | 24983 ft | 412 kts | 220° |
| 2026-05-06 23:32 | 36.99541 | -78.75072 | 24457 ft | 410 kts | 220° |
| 2026-05-06 23:32 | 36.97165 | -78.77038 | 23945 ft | 408 kts | 220° |
| 2026-05-06 23:32 | 36.94801 | -78.78993 | 23399 ft | 406 kts | 220° |
| 2026-05-06 23:33 | 36.92445 | -78.80939 | 22814 ft | 406 kts | 220° |
| 2026-05-06 23:33 | 36.90089 | -78.82880 | 22272 ft | 405 kts | 220° |
| 2026-05-06 23:33 | 36.87743 | -78.84811 | 21724 ft | 402 kts | 220° |
| 2026-05-06 23:33 | 36.85415 | -78.86725 | 21179 ft | 399 kts | 220° |
| 2026-05-06 23:34 | 36.83106 | -78.88623 | 20633 ft | 396 kts | 220° |
| 2026-05-06 23:34 | 36.80825 | -78.90499 | 20201 ft | 388 kts | 220° |
| 2026-05-06 23:34 | 36.78615 | -78.92308 | 20073 ft | 369 kts | 220° |
| 2026-05-06 23:34 | 36.76522 | -78.94013 | 19943 ft | 349 kts | 221° |
| 2026-05-06 23:35 | 36.74528 | -78.95636 | 19561 ft | 338 kts | 221° |
| 2026-05-06 23:35 | 36.72579 | -78.97230 | 19024 ft | 333 kts | 221° |
| 2026-05-06 23:35 | 36.70653 | -78.98813 | 18415 ft | 330 kts | 222° |
| 2026-05-06 23:35 | 36.68635 | -79.00199 | 17780 ft | 338 kts | 209° |
| 2026-05-06 23:36 | 36.66293 | -79.00795 | 17136 ft | 352 kts | 190° |
| 2026-05-06 23:36 | 36.63823 | -79.00415 | 16521 ft | 362 kts | 174° |
| 2026-05-06 23:36 | 36.61380 | -78.99704 | 15931 ft | 360 kts | 174° |
| 2026-05-06 23:36 | 36.58952 | -78.98987 | 15493 ft | 356 kts | 174° |
| 2026-05-06 23:37 | 36.56563 | -78.98281 | 14847 ft | 350 kts | 173° |
| 2026-05-06 23:37 | 36.54191 | -78.97584 | 14279 ft | 349 kts | 173° |
| 2026-05-06 23:37 | 36.51828 | -78.96893 | 13787 ft | 349 kts | 173° |
| 2026-05-06 23:37 | 36.49472 | -78.96208 | 13338 ft | 345 kts | 173° |
| 2026-05-06 23:38 | 36.47150 | -78.95535 | 12811 ft | 343 kts | 173° |
| 2026-05-06 23:38 | 36.44809 | -78.94861 | 12129 ft | 345 kts | 173° |
| 2026-05-06 23:38 | 36.43278 | -78.94419 | 11961 ft | 339 kts | 173° |
| 2026-05-06 23:38 | 36.41020 | -78.93641 | 11584 ft | 338 kts | 164° |
| 2026-05-06 23:39 | 36.38960 | -78.92192 | 11194 ft | 344 kts | 146° |
| 2026-05-06 23:39 | 36.37208 | -78.90187 | 10856 ft | 342 kts | 141° |
| 2026-05-06 23:39 | 36.35511 | -78.88140 | 10455 ft | 339 kts | 141° |
| 2026-05-06 23:39 | 36.33833 | -78.86104 | 10070 ft | 337 kts | 141° |
| 2026-05-06 23:40 | 36.32051 | -78.84288 | 9671 ft | 325 kts | 157° |
| 2026-05-06 23:40 | 36.29971 | -78.83443 | 9248 ft | 309 kts | 178° |
| 2026-05-06 23:40 | 36.27866 | -78.83133 | 9019 ft | 299 kts | 180° |
| 2026-05-06 23:40 | 36.25854 | -78.82863 | 9021 ft | 283 kts | 180° |
| 2026-05-06 23:41 | 36.23942 | -78.82222 | 8610 ft | 294 kts | 159° |
| 2026-05-06 23:41 | 36.22342 | -78.80615 | 8154 ft | 303 kts | 132° |
| 2026-05-06 23:41 | 36.21407 | -78.78270 | 7749 ft | 307 kts | 109° |
| 2026-05-06 23:41 | 36.20858 | -78.75734 | 7307 ft | 305 kts | 107° |
| 2026-05-06 23:42 | 36.20259 | -78.73165 | 6503 ft | 314 kts | 112° |
| 2026-05-06 23:42 | 36.19443 | -78.70700 | 6057 ft | 303 kts | 120° |
| 2026-05-06 23:42 | 36.18627 | -78.68348 | 5790 ft | 290 kts | 118° |
| 2026-05-06 23:42 | 36.17625 | -78.66272 | 5508 ft | 274 kts | 129° |
| 2026-05-06 23:43 | 36.16549 | -78.64382 | 5236 ft | 264 kts | 130° |
| 2026-05-06 23:43 | 36.15506 | -78.62570 | 4965 ft | 254 kts | 130° |
| 2026-05-06 23:43 | 36.14499 | -78.60818 | 4707 ft | 246 kts | 130° |
| 2026-05-06 23:43 | 36.13523 | -78.59131 | 4520 ft | 234 kts | 134° |
| 2026-05-06 23:44 | 36.12316 | -78.58000 | 4385 ft | 207 kts | 169° |
| 2026-05-06 23:44 | 36.10976 | -78.57809 | 4272 ft | 187 kts | 187° |
| 2026-05-06 23:44 | 36.09718 | -78.57863 | 4132 ft | 176 kts | 190° |
| 2026-05-06 23:44 | 36.08514 | -78.57935 | 3904 ft | 171 kts | 190° |
| 2026-05-06 23:45 | 36.07326 | -78.58009 | 3638 ft | 171 kts | 190° |
| 2026-05-06 23:45 | 36.06144 | -78.58097 | 3326 ft | 169 kts | 191° |
| 2026-05-06 23:45 | 36.05063 | -78.58518 | 3066 ft | 159 kts | 216° |
| 2026-05-06 23:45 | 36.04228 | -78.59395 | 3002 ft | 158 kts | 228° |
| 2026-05-06 23:46 | 36.03451 | -78.60363 | 3005 ft | 160 kts | 228° |
| 2026-05-06 23:46 | 36.02669 | -78.61335 | 2999 ft | 159 kts | 229° |
| 2026-05-06 23:46 | 36.01891 | -78.62302 | 2999 ft | 159 kts | 229° |
| 2026-05-06 23:46 | 36.01104 | -78.63279 | 2999 ft | 161 kts | 229° |
| 2026-05-06 23:47 | 36.00321 | -78.64251 | 2999 ft | 159 kts | 229° |
| 2026-05-06 23:47 | 35.99543 | -78.65216 | 2998 ft | 158 kts | 229° |
| 2026-05-06 23:47 | 35.98758 | -78.66191 | 2895 ft | 161 kts | 228° |
| 2026-05-06 23:47 | 35.97971 | -78.67167 | 2723 ft | 160 kts | 228° |
| 2026-05-06 23:48 | 35.97193 | -78.68131 | 2585 ft | 154 kts | 228° |
| 2026-05-06 23:48 | 35.96443 | -78.69060 | 2334 ft | 149 kts | 227° |
| 2026-05-06 23:48 | 35.95728 | -78.69945 | 2143 ft | 142 kts | 228° |
| 2026-05-06 23:48 | 35.95043 | -78.70794 | 1955 ft | 139 kts | 228° |
| 2026-05-06 23:49 | 35.94368 | -78.71630 | 1779 ft | 136 kts | 227° |
| 2026-05-06 23:49 | 35.93712 | -78.72443 | 1608 ft | 134 kts | 226° |
| 2026-05-06 23:49 | 35.93036 | -78.73280 | 1416 ft | 138 kts | 227° |
| 2026-05-06 23:49 | 35.92361 | -78.74110 | 1225 ft | 137 kts | 227° |
| 2026-05-06 23:50 | 35.91690 | -78.74942 | 1079 ft | 137 kts | 226° |
| 2026-05-06 23:50 | 35.90347 | -78.76616 | 684 ft | 138 kts | 225° |
| 2026-05-06 23:50 | 35.89669 | -78.77456 | 555 ft | 138 kts | 224° |
| 2026-05-06 23:51 | 35.88997 | -78.78282 | 413 ft | 132 kts | 225° |
| 2026-05-06 23:51 | 35.88464 | -78.78942 | 395 ft | 86 kts | 225° |
| 2026-05-06 23:51 | 35.88130 | -78.79347 | 393 ft | 53 kts | 224° |
| 2026-05-06 23:51 | 35.88022 | -78.79468 | 393 ft | 7 kts | 207° |
| 2026-05-06 23:52 | 35.87965 | -78.79475 | 392 ft | 6 kts | 180° |
| 2026-05-06 23:52 | 35.87950 | -78.79472 | 392 ft | 1 kts | 166° |
| 2026-05-06 23:52 | 35.87932 | -78.79464 | 392 ft | 4 kts | 159° |
| 2026-05-06 23:52 | 35.87895 | -78.79460 | 392 ft | 7 kts | 190° |
| 2026-05-06 23:53 | 35.87847 | -78.79508 | 390 ft | 11 kts | 227° |
| 2026-05-06 23:53 | 35.87781 | -78.79592 | 389 ft | 16 kts | 224° |
| 2026-05-06 23:53 | 35.87693 | -78.79701 | 387 ft | 18 kts | 225° |
| 2026-05-06 23:53 | 35.87626 | -78.79783 | 384 ft | 7 kts | 225° |
| 2026-05-06 23:54 | 35.87621 | -78.79789 | 384 ft | 0 kts | 225° |
| 2026-05-06 23:55 | 35.87621 | -78.79790 | 384 ft | 0 kts | 225° |
| 2026-05-06 23:55 | 35.87607 | -78.79807 | 384 ft | 6 kts | 225° |
| 2026-05-06 23:56 | 35.87564 | -78.79834 | 386 ft | 6 kts | 175° |
| 2026-05-06 23:56 | 35.87546 | -78.79816 | 389 ft | 3 kts | 128° |
| 2026-05-06 23:56 | 35.87556 | -78.79768 | 391 ft | 12 kts | 50° |
| 2026-05-06 23:56 | 35.87620 | -78.79686 | 392 ft | 15 kts | 45° |
| 2026-05-06 23:57 | 35.87693 | -78.79598 | 392 ft | 12 kts | 45° |
| 2026-05-06 23:57 | 35.87730 | -78.79528 | 393 ft | 8 kts | 99° |
| 2026-05-06 23:57 | 35.87709 | -78.79494 | 393 ft | 5 kts | 136° |
| 2026-05-06 23:57 | 35.87696 | -78.79480 | 393 ft | 0 kts | 137° |